sensor_id;sensor_type;location;lat;lon;timestamp;P1;durP1;ratioP1;P2;durP2;ratioP2
63902;SDS011;50072;50.678;13.938;2023-07-31T00:00:57;5.80;;;2.70;;
63902;SDS011;50072;50.678;13.938;2023-07-31T00:03:27;6.22;;;2.90;;
63902;SDS011;50072;50.678;13.938;2023-07-31T00:05:53;10.18;;;2.90;;
63902;SDS011;50072;50.678;13.938;2023-07-31T00:08:19;8.80;;;3.33;;
63902;SDS011;50072;50.678;13.938;2023-07-31T00:10:45;5.95;;;2.88;;
63902;SDS011;50072;50.678;13.938;2023-07-31T00:13:11;4.78;;;2.80;;
63902;SDS011;50072;50.678;13.938;2023-07-31T00:15:36;7.32;;;3.10;;
63902;SDS011;50072;50.678;13.938;2023-07-31T00:18:03;7.53;;;3.10;;
63902;SDS011;50072;50.678;13.938;2023-07-31T00:20:30;7.88;;;3.25;;
63902;SDS011;50072;50.678;13.938;2023-07-31T00:22:56;5.50;;;2.70;;
63902;SDS011;50072;50.678;13.938;2023-07-31T00:25:22;7.80;;;3.13;;
63902;SDS011;50072;50.678;13.938;2023-07-31T00:27:48;7.38;;;2.95;;
63902;SDS011;50072;50.678;13.938;2023-07-31T00:30:14;8.07;;;3.30;;
63902;SDS011;50072;50.678;13.938;2023-07-31T00:32:39;7.32;;;2.80;;
63902;SDS011;50072;50.678;13.938;2023-07-31T00:35:06;8.73;;;2.90;;
63902;SDS011;50072;50.678;13.938;2023-07-31T00:37:32;6.90;;;2.97;;
63902;SDS011;50072;50.678;13.938;2023-07-31T00:39:58;4.97;;;3.00;;
63902;SDS011;50072;50.678;13.938;2023-07-31T00:42:25;6.97;;;2.65;;
63902;SDS011;50072;50.678;13.938;2023-07-31T00:44:51;6.18;;;3.00;;
63902;SDS011;50072;50.678;13.938;2023-07-31T00:47:16;7.80;;;3.45;;
63902;SDS011;50072;50.678;13.938;2023-07-31T00:49:42;7.68;;;3.30;;
63902;SDS011;50072;50.678;13.938;2023-07-31T00:52:09;6.00;;;3.10;;
63902;SDS011;50072;50.678;13.938;2023-07-31T00:54:35;9.13;;;3.13;;
63902;SDS011;50072;50.678;13.938;2023-07-31T00:57:02;5.45;;;2.85;;
63902;SDS011;50072;50.678;13.938;2023-07-31T00:59:28;5.93;;;2.97;;
63902;SDS011;50072;50.678;13.938;2023-07-31T01:01:54;10.23;;;3.47;;
63902;SDS011;50072;50.678;13.938;2023-07-31T01:04:20;6.55;;;2.85;;
63902;SDS011;50072;50.678;13.938;2023-07-31T01:07:05;8.18;;;2.97;;
63902;SDS011;50072;50.678;13.938;2023-07-31T01:12:01;8.40;;;3.00;;
63902;SDS011;50072;50.678;13.938;2023-07-31T01:14:29;9.98;;;3.58;;
63902;SDS011;50072;50.678;13.938;2023-07-31T01:16:55;5.35;;;3.05;;
63902;SDS011;50072;50.678;13.938;2023-07-31T01:19:25;10.48;;;2.83;;
63902;SDS011;50072;50.678;13.938;2023-07-31T01:22:12;6.00;;;3.20;;
63902;SDS011;50072;50.678;13.938;2023-07-31T01:24:56;7.07;;;2.80;;
63902;SDS011;50072;50.678;13.938;2023-07-31T01:27:39;6.82;;;3.25;;
63902;SDS011;50072;50.678;13.938;2023-07-31T01:30:15;7.57;;;3.60;;
63902;SDS011;50072;50.678;13.938;2023-07-31T01:32:43;9.63;;;3.90;;
63902;SDS011;50072;50.678;13.938;2023-07-31T01:35:13;11.30;;;4.57;;
63902;SDS011;50072;50.678;13.938;2023-07-31T01:37:42;12.38;;;4.32;;
63902;SDS011;50072;50.678;13.938;2023-07-31T01:40:09;8.73;;;3.95;;
63902;SDS011;50072;50.678;13.938;2023-07-31T01:42:35;8.75;;;3.83;;
63902;SDS011;50072;50.678;13.938;2023-07-31T01:45:01;11.40;;;3.70;;
63902;SDS011;50072;50.678;13.938;2023-07-31T01:47:28;9.25;;;2.65;;
63902;SDS011;50072;50.678;13.938;2023-07-31T01:49:54;9.25;;;3.15;;
63902;SDS011;50072;50.678;13.938;2023-07-31T01:52:19;10.43;;;2.67;;
63902;SDS011;50072;50.678;13.938;2023-07-31T01:54:45;4.38;;;2.70;;
63902;SDS011;50072;50.678;13.938;2023-07-31T01:57:11;5.75;;;2.65;;
63902;SDS011;50072;50.678;13.938;2023-07-31T01:59:36;6.20;;;2.75;;
63902;SDS011;50072;50.678;13.938;2023-07-31T02:02:02;8.45;;;2.83;;
63902;SDS011;50072;50.678;13.938;2023-07-31T02:04:29;5.50;;;2.55;;
63902;SDS011;50072;50.678;13.938;2023-07-31T02:06:57;7.10;;;2.70;;
63902;SDS011;50072;50.678;13.938;2023-07-31T02:09:23;5.53;;;3.00;;
63902;SDS011;50072;50.678;13.938;2023-07-31T02:11:49;8.32;;;2.72;;
63902;SDS011;50072;50.678;13.938;2023-07-31T02:14:14;8.43;;;3.63;;
63902;SDS011;50072;50.678;13.938;2023-07-31T02:16:40;7.80;;;2.95;;
63902;SDS011;50072;50.678;13.938;2023-07-31T02:19:08;6.57;;;2.83;;
63902;SDS011;50072;50.678;13.938;2023-07-31T02:21:35;5.38;;;2.80;;
63902;SDS011;50072;50.678;13.938;2023-07-31T02:24:00;10.85;;;2.95;;
63902;SDS011;50072;50.678;13.938;2023-07-31T02:26:26;9.30;;;3.17;;
63902;SDS011;50072;50.678;13.938;2023-07-31T02:28:53;6.78;;;3.47;;
63902;SDS011;50072;50.678;13.938;2023-07-31T02:31:19;8.52;;;4.00;;
63902;SDS011;50072;50.678;13.938;2023-07-31T02:33:44;5.25;;;2.33;;
63902;SDS011;50072;50.678;13.938;2023-07-31T02:36:11;8.80;;;2.90;;
63902;SDS011;50072;50.678;13.938;2023-07-31T02:38:37;5.75;;;2.60;;
63902;SDS011;50072;50.678;13.938;2023-07-31T02:41:03;7.53;;;2.85;;
63902;SDS011;50072;50.678;13.938;2023-07-31T02:43:30;5.85;;;2.92;;
63902;SDS011;50072;50.678;13.938;2023-07-31T02:45:57;5.28;;;2.60;;
63902;SDS011;50072;50.678;13.938;2023-07-31T02:48:22;4.85;;;2.65;;
63902;SDS011;50072;50.678;13.938;2023-07-31T02:50:48;7.72;;;2.45;;
63902;SDS011;50072;50.678;13.938;2023-07-31T02:53:14;7.18;;;3.13;;
63902;SDS011;50072;50.678;13.938;2023-07-31T02:55:40;4.15;;;2.40;;
63902;SDS011;50072;50.678;13.938;2023-07-31T02:58:06;7.28;;;2.60;;
63902;SDS011;50072;50.678;13.938;2023-07-31T03:02:57;6.93;;;2.70;;
63902;SDS011;50072;50.678;13.938;2023-07-31T03:05:23;10.23;;;3.00;;
63902;SDS011;50072;50.678;13.938;2023-07-31T03:07:49;6.45;;;2.55;;
63902;SDS011;50072;50.678;13.938;2023-07-31T03:10:15;5.18;;;2.47;;
63902;SDS011;50072;50.678;13.938;2023-07-31T03:12:41;6.18;;;2.90;;
63902;SDS011;50072;50.678;13.938;2023-07-31T03:15:07;4.32;;;2.60;;
63902;SDS011;50072;50.678;13.938;2023-07-31T03:17:33;5.78;;;2.63;;
63902;SDS011;50072;50.678;13.938;2023-07-31T03:19:59;5.68;;;2.63;;
63902;SDS011;50072;50.678;13.938;2023-07-31T03:22:25;7.88;;;3.03;;
63902;SDS011;50072;50.678;13.938;2023-07-31T03:24:51;7.82;;;3.70;;
63902;SDS011;50072;50.678;13.938;2023-07-31T03:27:16;7.68;;;3.10;;
63902;SDS011;50072;50.678;13.938;2023-07-31T03:29:42;9.05;;;3.10;;
63902;SDS011;50072;50.678;13.938;2023-07-31T03:32:08;5.10;;;3.17;;
63902;SDS011;50072;50.678;13.938;2023-07-31T03:34:34;8.48;;;3.38;;
63902;SDS011;50072;50.678;13.938;2023-07-31T03:37:00;6.20;;;2.88;;
63902;SDS011;50072;50.678;13.938;2023-07-31T03:39:27;6.53;;;3.08;;
63902;SDS011;50072;50.678;13.938;2023-07-31T03:41:52;6.32;;;2.92;;
63902;SDS011;50072;50.678;13.938;2023-07-31T03:44:18;9.38;;;3.00;;
63902;SDS011;50072;50.678;13.938;2023-07-31T03:46:44;4.70;;;2.60;;
63902;SDS011;50072;50.678;13.938;2023-07-31T03:49:10;6.05;;;2.60;;
63902;SDS011;50072;50.678;13.938;2023-07-31T03:51:35;6.90;;;2.97;;
63902;SDS011;50072;50.678;13.938;2023-07-31T03:54:01;7.03;;;2.83;;
63902;SDS011;50072;50.678;13.938;2023-07-31T03:56:27;4.57;;;2.67;;
63902;SDS011;50072;50.678;13.938;2023-07-31T03:58:53;6.18;;;2.67;;
63902;SDS011;50072;50.678;13.938;2023-07-31T04:01:19;9.63;;;2.97;;
63902;SDS011;50072;50.678;13.938;2023-07-31T04:03:45;7.53;;;2.70;;
63902;SDS011;50072;50.678;13.938;2023-07-31T04:06:11;7.53;;;2.88;;
63902;SDS011;50072;50.678;13.938;2023-07-31T04:08:37;7.53;;;2.92;;
63902;SDS011;50072;50.678;13.938;2023-07-31T04:11:02;9.73;;;2.90;;
63902;SDS011;50072;50.678;13.938;2023-07-31T04:13:29;10.35;;;2.92;;
63902;SDS011;50072;50.678;13.938;2023-07-31T04:15:55;6.05;;;2.80;;
63902;SDS011;50072;50.678;13.938;2023-07-31T04:18:21;8.43;;;3.03;;
63902;SDS011;50072;50.678;13.938;2023-07-31T04:20:47;6.53;;;2.72;;
63902;SDS011;50072;50.678;13.938;2023-07-31T04:23:13;5.05;;;2.70;;
63902;SDS011;50072;50.678;13.938;2023-07-31T04:25:38;7.88;;;2.65;;
63902;SDS011;50072;50.678;13.938;2023-07-31T04:28:04;7.53;;;2.63;;
63902;SDS011;50072;50.678;13.938;2023-07-31T04:30:30;7.97;;;3.13;;
63902;SDS011;50072;50.678;13.938;2023-07-31T04:32:56;9.80;;;3.03;;
63902;SDS011;50072;50.678;13.938;2023-07-31T04:35:21;4.57;;;2.80;;
63902;SDS011;50072;50.678;13.938;2023-07-31T04:37:47;7.50;;;2.90;;
63902;SDS011;50072;50.678;13.938;2023-07-31T04:40:14;9.32;;;2.90;;
63902;SDS011;50072;50.678;13.938;2023-07-31T04:42:41;4.90;;;2.67;;
63902;SDS011;50072;50.678;13.938;2023-07-31T04:45:08;6.13;;;3.22;;
63902;SDS011;50072;50.678;13.938;2023-07-31T04:47:34;9.70;;;3.33;;
63902;SDS011;50072;50.678;13.938;2023-07-31T04:49:59;8.45;;;2.92;;
63902;SDS011;50072;50.678;13.938;2023-07-31T04:52:25;6.80;;;2.90;;
63902;SDS011;50072;50.678;13.938;2023-07-31T04:54:51;13.85;;;3.10;;
63902;SDS011;50072;50.678;13.938;2023-07-31T04:57:17;7.30;;;2.83;;
63902;SDS011;50072;50.678;13.938;2023-07-31T04:59:43;10.43;;;2.95;;
63902;SDS011;50072;50.678;13.938;2023-07-31T05:02:09;7.28;;;3.40;;
63902;SDS011;50072;50.678;13.938;2023-07-31T05:04:37;10.32;;;3.20;;
63902;SDS011;50072;50.678;13.938;2023-07-31T05:07:03;6.20;;;3.03;;
63902;SDS011;50072;50.678;13.938;2023-07-31T05:09:30;9.23;;;3.15;;
63902;SDS011;50072;50.678;13.938;2023-07-31T05:11:56;4.40;;;2.80;;
63902;SDS011;50072;50.678;13.938;2023-07-31T05:14:22;7.78;;;3.30;;
63902;SDS011;50072;50.678;13.938;2023-07-31T05:16:48;9.60;;;3.47;;
63902;SDS011;50072;50.678;13.938;2023-07-31T05:19:13;9.45;;;3.45;;
63902;SDS011;50072;50.678;13.938;2023-07-31T05:21:40;6.53;;;3.10;;
63902;SDS011;50072;50.678;13.938;2023-07-31T05:24:05;6.90;;;3.22;;
63902;SDS011;50072;50.678;13.938;2023-07-31T05:26:32;11.48;;;3.60;;
63902;SDS011;50072;50.678;13.938;2023-07-31T05:28:58;9.52;;;3.92;;
63902;SDS011;50072;50.678;13.938;2023-07-31T05:31:24;7.45;;;3.75;;
63902;SDS011;50072;50.678;13.938;2023-07-31T05:33:50;8.75;;;3.60;;
63902;SDS011;50072;50.678;13.938;2023-07-31T05:36:16;11.00;;;3.80;;
63902;SDS011;50072;50.678;13.938;2023-07-31T05:38:42;6.93;;;3.58;;
63902;SDS011;50072;50.678;13.938;2023-07-31T05:41:11;10.30;;;3.60;;
63902;SDS011;50072;50.678;13.938;2023-07-31T05:43:39;14.00;;;4.60;;
63902;SDS011;50072;50.678;13.938;2023-07-31T05:46:06;10.23;;;3.70;;
63902;SDS011;50072;50.678;13.938;2023-07-31T05:48:32;6.95;;;3.03;;
63902;SDS011;50072;50.678;13.938;2023-07-31T05:51:00;7.63;;;3.20;;
63902;SDS011;50072;50.678;13.938;2023-07-31T05:53:25;7.65;;;3.13;;
63902;SDS011;50072;50.678;13.938;2023-07-31T05:55:52;9.05;;;3.10;;
63902;SDS011;50072;50.678;13.938;2023-07-31T05:58:18;6.88;;;3.38;;
63902;SDS011;50072;50.678;13.938;2023-07-31T06:00:45;6.95;;;3.00;;
63902;SDS011;50072;50.678;13.938;2023-07-31T06:03:10;7.70;;;2.65;;
63902;SDS011;50072;50.678;13.938;2023-07-31T06:05:36;5.00;;;2.80;;
63902;SDS011;50072;50.678;13.938;2023-07-31T06:08:02;6.65;;;3.60;;
63902;SDS011;50072;50.678;13.938;2023-07-31T06:10:28;8.70;;;3.45;;
63902;SDS011;50072;50.678;13.938;2023-07-31T06:12:54;7.78;;;3.17;;
63902;SDS011;50072;50.678;13.938;2023-07-31T06:15:20;8.20;;;3.47;;
63902;SDS011;50072;50.678;13.938;2023-07-31T06:17:45;12.85;;;3.25;;
63902;SDS011;50072;50.678;13.938;2023-07-31T06:20:12;7.15;;;2.95;;
63902;SDS011;50072;50.678;13.938;2023-07-31T06:22:38;8.93;;;3.40;;
63902;SDS011;50072;50.678;13.938;2023-07-31T06:25:04;12.07;;;3.55;;
63902;SDS011;50072;50.678;13.938;2023-07-31T06:27:30;12.80;;;3.50;;
63902;SDS011;50072;50.678;13.938;2023-07-31T06:29:56;9.73;;;4.13;;
63902;SDS011;50072;50.678;13.938;2023-07-31T06:32:23;9.07;;;3.50;;
63902;SDS011;50072;50.678;13.938;2023-07-31T06:34:49;7.47;;;3.22;;
63902;SDS011;50072;50.678;13.938;2023-07-31T06:37:14;7.57;;;3.50;;
63902;SDS011;50072;50.678;13.938;2023-07-31T06:39:40;13.40;;;3.60;;
63902;SDS011;50072;50.678;13.938;2023-07-31T06:42:06;7.05;;;3.40;;
63902;SDS011;50072;50.678;13.938;2023-07-31T06:44:32;7.38;;;3.25;;
63902;SDS011;50072;50.678;13.938;2023-07-31T06:46:58;10.30;;;3.35;;
63902;SDS011;50072;50.678;13.938;2023-07-31T06:49:23;7.32;;;3.20;;
63902;SDS011;50072;50.678;13.938;2023-07-31T06:51:49;7.47;;;3.40;;
63902;SDS011;50072;50.678;13.938;2023-07-31T06:54:15;9.70;;;3.42;;
63902;SDS011;50072;50.678;13.938;2023-07-31T06:56:41;9.38;;;2.88;;
63902;SDS011;50072;50.678;13.938;2023-07-31T06:59:07;9.40;;;2.95;;
63902;SDS011;50072;50.678;13.938;2023-07-31T07:01:33;6.82;;;2.83;;
63902;SDS011;50072;50.678;13.938;2023-07-31T07:03:59;7.90;;;2.70;;
63902;SDS011;50072;50.678;13.938;2023-07-31T07:06:25;11.13;;;2.50;;
63902;SDS011;50072;50.678;13.938;2023-07-31T07:08:51;11.07;;;3.25;;
63902;SDS011;50072;50.678;13.938;2023-07-31T07:11:17;12.00;;;3.13;;
63902;SDS011;50072;50.678;13.938;2023-07-31T07:13:43;7.70;;;2.88;;
63902;SDS011;50072;50.678;13.938;2023-07-31T07:16:08;7.90;;;2.95;;
63902;SDS011;50072;50.678;13.938;2023-07-31T07:18:36;8.85;;;2.85;;
63902;SDS011;50072;50.678;13.938;2023-07-31T07:21:01;7.53;;;2.75;;
63902;SDS011;50072;50.678;13.938;2023-07-31T07:23:29;10.48;;;2.63;;
63902;SDS011;50072;50.678;13.938;2023-07-31T07:25:54;6.70;;;2.90;;
63902;SDS011;50072;50.678;13.938;2023-07-31T07:31:03;10.93;;;3.03;;
63902;SDS011;50072;50.678;13.938;2023-07-31T07:33:45;10.40;;;3.30;;
63902;SDS011;50072;50.678;13.938;2023-07-31T07:36:17;9.82;;;2.97;;
63902;SDS011;50072;50.678;13.938;2023-07-31T07:41:19;11.30;;;3.08;;
63902;SDS011;50072;50.678;13.938;2023-07-31T07:44:00;8.30;;;3.00;;
63902;SDS011;50072;50.678;13.938;2023-07-31T07:46:33;12.82;;;2.95;;
63902;SDS011;50072;50.678;13.938;2023-07-31T07:48:59;14.73;;;3.08;;
63902;SDS011;50072;50.678;13.938;2023-07-31T07:51:25;11.30;;;2.92;;
63902;SDS011;50072;50.678;13.938;2023-07-31T07:53:51;15.32;;;2.70;;
63902;SDS011;50072;50.678;13.938;2023-07-31T07:56:17;9.38;;;3.08;;
63902;SDS011;50072;50.678;13.938;2023-07-31T07:58:43;8.65;;;2.85;;
63902;SDS011;50072;50.678;13.938;2023-07-31T08:01:09;6.60;;;2.38;;
63902;SDS011;50072;50.678;13.938;2023-07-31T08:03:35;5.90;;;2.30;;
63902;SDS011;50072;50.678;13.938;2023-07-31T08:06:00;6.90;;;2.85;;
63902;SDS011;50072;50.678;13.938;2023-07-31T08:08:28;7.45;;;2.42;;
63902;SDS011;50072;50.678;13.938;2023-07-31T08:10:54;8.93;;;2.53;;
63902;SDS011;50072;50.678;13.938;2023-07-31T08:13:20;6.72;;;2.38;;
63902;SDS011;50072;50.678;13.938;2023-07-31T08:15:45;7.53;;;2.80;;
63902;SDS011;50072;50.678;13.938;2023-07-31T08:18:11;7.07;;;2.42;;
63902;SDS011;50072;50.678;13.938;2023-07-31T08:20:37;7.60;;;2.28;;
63902;SDS011;50072;50.678;13.938;2023-07-31T08:23:03;7.00;;;2.30;;
63902;SDS011;50072;50.678;13.938;2023-07-31T08:25:29;5.88;;;2.08;;
63902;SDS011;50072;50.678;13.938;2023-07-31T08:27:56;6.22;;;2.22;;
63902;SDS011;50072;50.678;13.938;2023-07-31T08:30:21;7.25;;;2.05;;
63902;SDS011;50072;50.678;13.938;2023-07-31T08:32:47;7.25;;;2.30;;
63902;SDS011;50072;50.678;13.938;2023-07-31T08:35:13;4.70;;;2.30;;
63902;SDS011;50072;50.678;13.938;2023-07-31T08:37:39;8.77;;;2.10;;
63902;SDS011;50072;50.678;13.938;2023-07-31T08:40:05;4.28;;;1.90;;
63902;SDS011;50072;50.678;13.938;2023-07-31T08:42:31;5.95;;;2.25;;
63902;SDS011;50072;50.678;13.938;2023-07-31T08:44:57;6.95;;;2.15;;
63902;SDS011;50072;50.678;13.938;2023-07-31T08:47:25;8.85;;;2.20;;
63902;SDS011;50072;50.678;13.938;2023-07-31T08:49:52;5.93;;;2.03;;
63902;SDS011;50072;50.678;13.938;2023-07-31T08:52:19;7.65;;;1.95;;
63902;SDS011;50072;50.678;13.938;2023-07-31T08:54:45;6.70;;;2.00;;
63902;SDS011;50072;50.678;13.938;2023-07-31T08:57:11;5.72;;;2.40;;
63902;SDS011;50072;50.678;13.938;2023-07-31T08:59:37;6.97;;;2.13;;
63902;SDS011;50072;50.678;13.938;2023-07-31T09:02:08;5.40;;;2.08;;
63902;SDS011;50072;50.678;13.938;2023-07-31T09:04:34;5.78;;;1.77;;
63902;SDS011;50072;50.678;13.938;2023-07-31T09:07:02;7.13;;;2.42;;
63902;SDS011;50072;50.678;13.938;2023-07-31T09:09:32;4.35;;;1.90;;
63902;SDS011;50072;50.678;13.938;2023-07-31T09:11:59;6.28;;;2.35;;
63902;SDS011;50072;50.678;13.938;2023-07-31T09:14:25;6.13;;;1.80;;
63902;SDS011;50072;50.678;13.938;2023-07-31T09:16:55;6.05;;;2.10;;
63902;SDS011;50072;50.678;13.938;2023-07-31T09:19:25;6.53;;;1.98;;
63902;SDS011;50072;50.678;13.938;2023-07-31T09:21:53;8.88;;;2.20;;
63902;SDS011;50072;50.678;13.938;2023-07-31T09:24:29;5.00;;;2.10;;
63902;SDS011;50072;50.678;13.938;2023-07-31T09:26:56;4.70;;;2.03;;
63902;SDS011;50072;50.678;13.938;2023-07-31T09:29:27;5.30;;;2.10;;
63902;SDS011;50072;50.678;13.938;2023-07-31T09:31:55;5.28;;;1.90;;
63902;SDS011;50072;50.678;13.938;2023-07-31T09:34:29;5.82;;;1.95;;
63902;SDS011;50072;50.678;13.938;2023-07-31T09:37:02;5.80;;;1.90;;
63902;SDS011;50072;50.678;13.938;2023-07-31T09:39:28;6.95;;;2.05;;
63902;SDS011;50072;50.678;13.938;2023-07-31T09:41:55;6.65;;;1.98;;
63902;SDS011;50072;50.678;13.938;2023-07-31T09:44:21;9.00;;;2.50;;
63902;SDS011;50072;50.678;13.938;2023-07-31T09:47:03;4.55;;;2.22;;
63902;SDS011;50072;50.678;13.938;2023-07-31T09:49:29;6.85;;;2.00;;
63902;SDS011;50072;50.678;13.938;2023-07-31T09:51:55;5.32;;;2.30;;
63902;SDS011;50072;50.678;13.938;2023-07-31T09:54:21;7.03;;;2.03;;
63902;SDS011;50072;50.678;13.938;2023-07-31T09:56:47;8.55;;;2.03;;
63902;SDS011;50072;50.678;13.938;2023-07-31T09:59:18;7.53;;;2.25;;
63902;SDS011;50072;50.678;13.938;2023-07-31T10:01:45;5.50;;;1.83;;
63902;SDS011;50072;50.678;13.938;2023-07-31T10:04:12;6.03;;;2.30;;
63902;SDS011;50072;50.678;13.938;2023-07-31T10:06:39;5.72;;;2.10;;
63902;SDS011;50072;50.678;13.938;2023-07-31T10:09:08;7.25;;;2.42;;
63902;SDS011;50072;50.678;13.938;2023-07-31T10:11:38;5.40;;;2.15;;
63902;SDS011;50072;50.678;13.938;2023-07-31T10:14:07;5.88;;;2.55;;
63902;SDS011;50072;50.678;13.938;2023-07-31T10:16:33;5.00;;;1.90;;
63902;SDS011;50072;50.678;13.938;2023-07-31T10:19:00;6.95;;;1.92;;
63902;SDS011;50072;50.678;13.938;2023-07-31T10:21:27;6.75;;;2.40;;
63902;SDS011;50072;50.678;13.938;2023-07-31T10:23:54;5.13;;;1.83;;
63902;SDS011;50072;50.678;13.938;2023-07-31T10:26:22;4.88;;;2.00;;
63902;SDS011;50072;50.678;13.938;2023-07-31T10:28:49;4.35;;;1.80;;
63902;SDS011;50072;50.678;13.938;2023-07-31T10:31:18;5.45;;;2.20;;
63902;SDS011;50072;50.678;13.938;2023-07-31T10:33:54;6.00;;;2.28;;
63902;SDS011;50072;50.678;13.938;2023-07-31T10:36:34;6.70;;;2.05;;
63902;SDS011;50072;50.678;13.938;2023-07-31T10:39:03;6.43;;;1.90;;
63902;SDS011;50072;50.678;13.938;2023-07-31T10:41:32;8.13;;;2.20;;
63902;SDS011;50072;50.678;13.938;2023-07-31T10:44:00;6.50;;;2.03;;
63902;SDS011;50072;50.678;13.938;2023-07-31T10:46:32;6.68;;;1.92;;
63902;SDS011;50072;50.678;13.938;2023-07-31T10:48:59;5.10;;;2.30;;
63902;SDS011;50072;50.678;13.938;2023-07-31T10:51:33;4.13;;;1.90;;
63902;SDS011;50072;50.678;13.938;2023-07-31T10:54:12;4.10;;;1.88;;
63902;SDS011;50072;50.678;13.938;2023-07-31T10:56:40;5.00;;;2.20;;
63902;SDS011;50072;50.678;13.938;2023-07-31T10:59:10;6.22;;;2.00;;
63902;SDS011;50072;50.678;13.938;2023-07-31T11:04:21;4.55;;;2.00;;
63902;SDS011;50072;50.678;13.938;2023-07-31T11:06:58;3.70;;;1.90;;
63902;SDS011;50072;50.678;13.938;2023-07-31T11:09:34;7.32;;;2.00;;
63902;SDS011;50072;50.678;13.938;2023-07-31T11:12:00;3.90;;;1.90;;
63902;SDS011;50072;50.678;13.938;2023-07-31T11:14:26;5.03;;;2.08;;
63902;SDS011;50072;50.678;13.938;2023-07-31T11:16:52;4.95;;;1.70;;
63902;SDS011;50072;50.678;13.938;2023-07-31T11:19:26;5.13;;;1.77;;
63902;SDS011;50072;50.678;13.938;2023-07-31T11:21:52;3.63;;;1.67;;
63902;SDS011;50072;50.678;13.938;2023-07-31T11:24:18;7.43;;;1.70;;
63902;SDS011;50072;50.678;13.938;2023-07-31T11:26:51;4.03;;;1.80;;
63902;SDS011;50072;50.678;13.938;2023-07-31T11:29:20;5.35;;;1.92;;
63902;SDS011;50072;50.678;13.938;2023-07-31T11:31:52;4.68;;;1.73;;
63902;SDS011;50072;50.678;13.938;2023-07-31T11:34:18;4.07;;;1.90;;
63902;SDS011;50072;50.678;13.938;2023-07-31T11:36:52;5.75;;;1.95;;
63902;SDS011;50072;50.678;13.938;2023-07-31T11:39:20;5.28;;;1.80;;
63902;SDS011;50072;50.678;13.938;2023-07-31T11:41:46;3.97;;;2.08;;
63902;SDS011;50072;50.678;13.938;2023-07-31T11:44:11;3.45;;;1.77;;
63902;SDS011;50072;50.678;13.938;2023-07-31T11:46:37;5.20;;;1.88;;
63902;SDS011;50072;50.678;13.938;2023-07-31T11:49:04;4.88;;;2.00;;
63902;SDS011;50072;50.678;13.938;2023-07-31T11:51:30;9.35;;;2.00;;
63902;SDS011;50072;50.678;13.938;2023-07-31T11:53:57;5.22;;;2.30;;
63902;SDS011;50072;50.678;13.938;2023-07-31T11:56:26;7.18;;;2.05;;
63902;SDS011;50072;50.678;13.938;2023-07-31T11:58:57;5.20;;;1.73;;
63902;SDS011;50072;50.678;13.938;2023-07-31T12:01:24;4.72;;;1.90;;
63902;SDS011;50072;50.678;13.938;2023-07-31T12:03:53;4.72;;;2.25;;
63902;SDS011;50072;50.678;13.938;2023-07-31T12:06:19;4.70;;;1.88;;
63902;SDS011;50072;50.678;13.938;2023-07-31T12:08:48;6.32;;;2.45;;
63902;SDS011;50072;50.678;13.938;2023-07-31T12:11:14;6.25;;;2.38;;
63902;SDS011;50072;50.678;13.938;2023-07-31T12:13:40;4.70;;;2.13;;
63902;SDS011;50072;50.678;13.938;2023-07-31T12:16:06;12.13;;;2.10;;
63902;SDS011;50072;50.678;13.938;2023-07-31T12:18:35;5.50;;;1.90;;
63902;SDS011;50072;50.678;13.938;2023-07-31T12:21:06;4.97;;;1.80;;
63902;SDS011;50072;50.678;13.938;2023-07-31T12:23:34;7.35;;;2.30;;
63902;SDS011;50072;50.678;13.938;2023-07-31T12:26:02;5.22;;;2.20;;
63902;SDS011;50072;50.678;13.938;2023-07-31T12:28:29;4.80;;;2.15;;
63902;SDS011;50072;50.678;13.938;2023-07-31T12:31:00;3.75;;;1.70;;
63902;SDS011;50072;50.678;13.938;2023-07-31T12:33:32;4.65;;;2.03;;
63902;SDS011;50072;50.678;13.938;2023-07-31T12:36:00;9.05;;;2.45;;
63902;SDS011;50072;50.678;13.938;2023-07-31T12:38:28;4.55;;;1.65;;
63902;SDS011;50072;50.678;13.938;2023-07-31T12:40:55;4.10;;;2.10;;
63902;SDS011;50072;50.678;13.938;2023-07-31T12:43:20;3.75;;;1.50;;
63902;SDS011;50072;50.678;13.938;2023-07-31T12:45:46;4.70;;;1.80;;
63902;SDS011;50072;50.678;13.938;2023-07-31T12:48:13;3.78;;;1.40;;
63902;SDS011;50072;50.678;13.938;2023-07-31T12:50:39;5.35;;;1.60;;
63902;SDS011;50072;50.678;13.938;2023-07-31T12:53:05;3.75;;;1.73;;
63902;SDS011;50072;50.678;13.938;2023-07-31T12:55:32;3.72;;;1.60;;
63902;SDS011;50072;50.678;13.938;2023-07-31T12:58:02;3.38;;;1.65;;
63902;SDS011;50072;50.678;13.938;2023-07-31T13:00:28;5.15;;;1.60;;
63902;SDS011;50072;50.678;13.938;2023-07-31T13:02:55;4.18;;;1.70;;
63902;SDS011;50072;50.678;13.938;2023-07-31T13:05:20;4.40;;;1.50;;
63902;SDS011;50072;50.678;13.938;2023-07-31T13:07:47;6.07;;;1.77;;
63902;SDS011;50072;50.678;13.938;2023-07-31T13:10:14;5.25;;;2.03;;
63902;SDS011;50072;50.678;13.938;2023-07-31T13:12:39;4.75;;;2.00;;
63902;SDS011;50072;50.678;13.938;2023-07-31T13:15:06;5.45;;;2.10;;
63902;SDS011;50072;50.678;13.938;2023-07-31T13:17:32;7.30;;;1.90;;
63902;SDS011;50072;50.678;13.938;2023-07-31T13:19:58;4.07;;;1.88;;
63902;SDS011;50072;50.678;13.938;2023-07-31T13:22:24;3.53;;;1.80;;
63902;SDS011;50072;50.678;13.938;2023-07-31T13:24:51;4.60;;;1.80;;
63902;SDS011;50072;50.678;13.938;2023-07-31T13:27:16;6.63;;;2.15;;
63902;SDS011;50072;50.678;13.938;2023-07-31T13:29:44;6.68;;;2.00;;
63902;SDS011;50072;50.678;13.938;2023-07-31T13:32:10;3.95;;;1.73;;
63902;SDS011;50072;50.678;13.938;2023-07-31T13:34:37;6.22;;;1.70;;
63902;SDS011;50072;50.678;13.938;2023-07-31T13:37:09;4.82;;;2.13;;
63902;SDS011;50072;50.678;13.938;2023-07-31T13:42:02;4.78;;;1.60;;
63902;SDS011;50072;50.678;13.938;2023-07-31T13:44:35;3.45;;;1.50;;
63902;SDS011;50072;50.678;13.938;2023-07-31T13:49:36;3.72;;;1.67;;
63902;SDS011;50072;50.678;13.938;2023-07-31T13:52:02;5.20;;;1.77;;
63902;SDS011;50072;50.678;13.938;2023-07-31T13:54:28;4.45;;;1.55;;
63902;SDS011;50072;50.678;13.938;2023-07-31T13:56:54;4.05;;;1.85;;
63902;SDS011;50072;50.678;13.938;2023-07-31T13:59:20;4.88;;;1.73;;
63902;SDS011;50072;50.678;13.938;2023-07-31T14:01:48;6.00;;;1.90;;
63902;SDS011;50072;50.678;13.938;2023-07-31T14:04:16;4.63;;;1.83;;
63902;SDS011;50072;50.678;13.938;2023-07-31T14:06:43;4.22;;;1.80;;
63902;SDS011;50072;50.678;13.938;2023-07-31T14:09:09;4.20;;;1.90;;
63902;SDS011;50072;50.678;13.938;2023-07-31T14:11:35;4.35;;;1.73;;
63902;SDS011;50072;50.678;13.938;2023-07-31T14:14:01;4.25;;;1.90;;
63902;SDS011;50072;50.678;13.938;2023-07-31T14:16:27;3.17;;;1.65;;
63902;SDS011;50072;50.678;13.938;2023-07-31T14:18:54;5.28;;;1.70;;
63902;SDS011;50072;50.678;13.938;2023-07-31T14:21:20;3.85;;;1.80;;
63902;SDS011;50072;50.678;13.938;2023-07-31T14:23:46;6.03;;;1.52;;
63902;SDS011;50072;50.678;13.938;2023-07-31T14:26:12;3.42;;;1.80;;
63902;SDS011;50072;50.678;13.938;2023-07-31T14:28:38;5.85;;;1.75;;
63902;SDS011;50072;50.678;13.938;2023-07-31T14:31:05;4.95;;;1.80;;
63902;SDS011;50072;50.678;13.938;2023-07-31T14:33:31;5.32;;;1.90;;
63902;SDS011;50072;50.678;13.938;2023-07-31T14:35:56;5.05;;;1.95;;
63902;SDS011;50072;50.678;13.938;2023-07-31T14:38:22;6.97;;;1.75;;
63902;SDS011;50072;50.678;13.938;2023-07-31T14:40:48;5.18;;;2.08;;
63902;SDS011;50072;50.678;13.938;2023-07-31T14:43:15;3.35;;;1.60;;
63902;SDS011;50072;50.678;13.938;2023-07-31T14:45:40;6.20;;;1.60;;
63902;SDS011;50072;50.678;13.938;2023-07-31T14:48:06;5.90;;;1.67;;
63902;SDS011;50072;50.678;13.938;2023-07-31T14:50:32;4.70;;;1.65;;